sensor_id;sensor_type;location;lat;lon;timestamp;P1;durP1;ratioP1;P2;durP2;ratioP2
22425;SDS011;11380;50.822;15.790;2023-04-06T00:03:14;52.57;;;47.90;;
22425;SDS011;11380;50.822;15.790;2023-04-06T00:08:21;55.30;;;49.80;;
22425;SDS011;11380;50.822;15.790;2023-04-06T00:13:30;52.13;;;47.67;;
22425;SDS011;11380;50.822;15.790;2023-04-06T00:18:39;55.60;;;50.03;;
22425;SDS011;11380;50.822;15.790;2023-04-06T00:23:47;54.30;;;49.20;;
22425;SDS011;11380;50.822;15.790;2023-04-06T00:28:54;52.57;;;47.67;;
22425;SDS011;11380;50.822;15.790;2023-04-06T00:34:05;49.63;;;45.30;;
22425;SDS011;11380;50.822;15.790;2023-04-06T00:39:12;48.63;;;44.27;;
22425;SDS011;11380;50.822;15.790;2023-04-06T00:44:22;53.52;;;48.10;;
22425;SDS011;11380;50.822;15.790;2023-04-06T00:49:31;56.03;;;50.57;;
22425;SDS011;11380;50.822;15.790;2023-04-06T00:54:41;52.53;;;48.00;;
22425;SDS011;11380;50.822;15.790;2023-04-06T00:59:49;51.80;;;47.08;;
22425;SDS011;11380;50.822;15.790;2023-04-06T01:04:58;49.80;;;45.53;;
22425;SDS011;11380;50.822;15.790;2023-04-06T01:10:06;49.67;;;45.57;;
22425;SDS011;11380;50.822;15.790;2023-04-06T01:15:14;49.73;;;45.23;;
22425;SDS011;11380;50.822;15.790;2023-04-06T01:20:22;48.70;;;45.03;;
22425;SDS011;11380;50.822;15.790;2023-04-06T01:25:30;48.80;;;45.04;;
22425;SDS011;11380;50.822;15.790;2023-04-06T01:30:37;47.97;;;44.07;;
22425;SDS011;11380;50.822;15.790;2023-04-06T01:35:45;47.73;;;43.93;;
22425;SDS011;11380;50.822;15.790;2023-04-06T01:40:54;50.23;;;45.80;;
22425;SDS011;11380;50.822;15.790;2023-04-06T01:46:02;50.60;;;46.00;;
22425;SDS011;11380;50.822;15.790;2023-04-06T01:51:10;49.53;;;45.33;;
22425;SDS011;11380;50.822;15.790;2023-04-06T01:56:17;49.57;;;45.47;;
22425;SDS011;11380;50.822;15.790;2023-04-06T02:01:25;50.47;;;45.63;;
22425;SDS011;11380;50.822;15.790;2023-04-06T02:06:32;49.50;;;45.10;;
22425;SDS011;11380;50.822;15.790;2023-04-06T02:11:41;49.45;;;44.93;;
22425;SDS011;11380;50.822;15.790;2023-04-06T02:16:50;50.83;;;46.23;;
22425;SDS011;11380;50.822;15.790;2023-04-06T02:22:00;47.47;;;43.73;;
22425;SDS011;11380;50.822;15.790;2023-04-06T02:27:07;50.07;;;45.93;;
22425;SDS011;11380;50.822;15.790;2023-04-06T02:32:14;51.93;;;47.17;;
22425;SDS011;11380;50.822;15.790;2023-04-06T02:37:22;49.47;;;44.73;;
22425;SDS011;11380;50.822;15.790;2023-04-06T02:42:31;47.13;;;43.43;;
22425;SDS011;11380;50.822;15.790;2023-04-06T02:47:40;48.97;;;44.83;;
22425;SDS011;11380;50.822;15.790;2023-04-06T02:52:49;47.93;;;44.08;;
22425;SDS011;11380;50.822;15.790;2023-04-06T02:57:58;48.15;;;44.10;;
22425;SDS011;11380;50.822;15.790;2023-04-06T03:03:06;47.57;;;43.67;;
22425;SDS011;11380;50.822;15.790;2023-04-06T03:08:13;45.50;;;42.30;;
22425;SDS011;11380;50.822;15.790;2023-04-06T03:13:21;43.07;;;40.07;;
22425;SDS011;11380;50.822;15.790;2023-04-06T03:18:29;43.83;;;40.50;;
22425;SDS011;11380;50.822;15.790;2023-04-06T03:23:35;43.10;;;40.20;;
22425;SDS011;11380;50.822;15.790;2023-04-06T03:28:43;43.42;;;40.25;;
22425;SDS011;11380;50.822;15.790;2023-04-06T03:33:51;43.43;;;40.57;;
22425;SDS011;11380;50.822;15.790;2023-04-06T03:38:59;43.67;;;40.60;;
22425;SDS011;11380;50.822;15.790;2023-04-06T03:44:06;44.37;;;41.33;;
22425;SDS011;11380;50.822;15.790;2023-04-06T03:49:14;46.35;;;42.85;;
22425;SDS011;11380;50.822;15.790;2023-04-06T03:54:22;45.00;;;41.27;;
22425;SDS011;11380;50.822;15.790;2023-04-06T03:59:30;42.50;;;39.78;;
22425;SDS011;11380;50.822;15.790;2023-04-06T04:04:37;42.97;;;40.17;;
22425;SDS011;11380;50.822;15.790;2023-04-06T04:09:45;43.13;;;40.27;;
22425;SDS011;11380;50.822;15.790;2023-04-06T04:14:52;43.33;;;40.33;;
22425;SDS011;11380;50.822;15.790;2023-04-06T04:19:59;43.42;;;40.43;;
22425;SDS011;11380;50.822;15.790;2023-04-06T04:25:07;43.80;;;40.90;;
22425;SDS011;11380;50.822;15.790;2023-04-06T04:30:16;44.93;;;41.47;;
22425;SDS011;11380;50.822;15.790;2023-04-06T04:35:24;47.27;;;43.13;;
22425;SDS011;11380;50.822;15.790;2023-04-06T04:40:32;43.40;;;40.40;;
22425;SDS011;11380;50.822;15.790;2023-04-06T04:50:45;46.60;;;41.77;;
22425;SDS011;11380;50.822;15.790;2023-04-06T04:55:53;42.90;;;39.93;;
22425;SDS011;11380;50.822;15.790;2023-04-06T05:01:01;43.40;;;40.23;;
22425;SDS011;11380;50.822;15.790;2023-04-06T05:06:09;41.07;;;38.43;;
22425;SDS011;11380;50.822;15.790;2023-04-06T05:11:20;41.80;;;39.10;;
22425;SDS011;11380;50.822;15.790;2023-04-06T05:16:27;43.20;;;40.20;;
22425;SDS011;11380;50.822;15.790;2023-04-06T05:21:34;43.63;;;40.67;;
22425;SDS011;11380;50.822;15.790;2023-04-06T05:26:43;45.65;;;41.92;;
22425;SDS011;11380;50.822;15.790;2023-04-06T05:31:51;48.80;;;44.73;;
22425;SDS011;11380;50.822;15.790;2023-04-06T05:36:58;50.70;;;45.93;;
22425;SDS011;11380;50.822;15.790;2023-04-06T05:42:05;49.13;;;45.00;;
22425;SDS011;11380;50.822;15.790;2023-04-06T05:47:15;57.03;;;51.13;;
22425;SDS011;11380;50.822;15.790;2023-04-06T05:52:23;62.53;;;49.70;;
22425;SDS011;11380;50.822;15.790;2023-04-06T05:57:31;56.17;;;50.90;;
22425;SDS011;11380;50.822;15.790;2023-04-06T06:02:38;53.97;;;48.93;;
22425;SDS011;11380;50.822;15.790;2023-04-06T06:07:47;54.63;;;49.15;;
22425;SDS011;11380;50.822;15.790;2023-04-06T06:12:55;55.63;;;50.60;;
22425;SDS011;11380;50.822;15.790;2023-04-06T06:18:02;57.77;;;52.27;;
22425;SDS011;11380;50.822;15.790;2023-04-06T06:23:10;61.27;;;54.83;;
22425;SDS011;11380;50.822;15.790;2023-04-06T06:28:18;68.78;;;55.80;;
22425;SDS011;11380;50.822;15.790;2023-04-06T06:33:27;60.27;;;54.13;;
22425;SDS011;11380;50.822;15.790;2023-04-06T06:38:34;56.00;;;50.92;;
22425;SDS011;11380;50.822;15.790;2023-04-06T06:43:43;52.50;;;48.23;;
22425;SDS011;11380;50.822;15.790;2023-04-06T06:48:51;52.73;;;48.20;;
22425;SDS011;11380;50.822;15.790;2023-04-06T06:59:04;55.13;;;49.87;;
22425;SDS011;11380;50.822;15.790;2023-04-06T07:04:12;54.07;;;49.27;;
22425;SDS011;11380;50.822;15.790;2023-04-06T07:09:20;53.35;;;48.80;;
22425;SDS011;11380;50.822;15.790;2023-04-06T07:14:27;54.40;;;49.57;;
22425;SDS011;11380;50.822;15.790;2023-04-06T07:19:34;55.17;;;50.13;;
22425;SDS011;11380;50.822;15.790;2023-04-06T07:24:55;54.17;;;49.20;;
22425;SDS011;11380;50.822;15.790;2023-04-06T07:30:03;54.33;;;49.27;;
22425;SDS011;11380;50.822;15.790;2023-04-06T07:35:11;54.90;;;49.93;;
22425;SDS011;11380;50.822;15.790;2023-04-06T07:40:18;53.70;;;48.80;;
22425;SDS011;11380;50.822;15.790;2023-04-06T07:45:25;53.03;;;48.23;;
22425;SDS011;11380;50.822;15.790;2023-04-06T07:50:32;53.13;;;48.43;;
22425;SDS011;11380;50.822;15.790;2023-04-06T07:55:39;53.45;;;48.68;;
22425;SDS011;11380;50.822;15.790;2023-04-06T08:00:47;54.00;;;48.87;;
22425;SDS011;11380;50.822;15.790;2023-04-06T08:05:53;52.97;;;48.07;;
22425;SDS011;11380;50.822;15.790;2023-04-06T08:11:01;53.93;;;48.80;;
22425;SDS011;11380;50.822;15.790;2023-04-06T08:16:08;56.87;;;51.60;;
22425;SDS011;11380;50.822;15.790;2023-04-06T08:21:15;51.10;;;46.70;;
22425;SDS011;11380;50.822;15.790;2023-04-06T08:26:23;49.90;;;45.73;;
22425;SDS011;11380;50.822;15.790;2023-04-06T08:31:30;56.20;;;50.97;;
22425;SDS011;11380;50.822;15.790;2023-04-06T08:36:37;60.08;;;54.10;;
22425;SDS011;11380;50.822;15.790;2023-04-06T08:41:45;55.12;;;49.93;;
22425;SDS011;11380;50.822;15.790;2023-04-06T08:46:52;56.70;;;51.37;;
22425;SDS011;11380;50.822;15.790;2023-04-06T08:51:59;51.37;;;46.87;;
22425;SDS011;11380;50.822;15.790;2023-04-06T08:57:07;55.90;;;50.80;;
22425;SDS011;11380;50.822;15.790;2023-04-06T09:02:15;57.00;;;51.50;;
22425;SDS011;11380;50.822;15.790;2023-04-06T09:07:27;56.13;;;50.60;;
22425;SDS011;11380;50.822;15.790;2023-04-06T09:12:35;56.47;;;51.20;;
22425;SDS011;11380;50.822;15.790;2023-04-06T09:22:49;56.40;;;50.60;;
22425;SDS011;11380;50.822;15.790;2023-04-06T09:27:58;52.23;;;47.50;;
22425;SDS011;11380;50.822;15.790;2023-04-06T09:33:11;50.67;;;46.20;;
22425;SDS011;11380;50.822;15.790;2023-04-06T09:43:24;56.03;;;50.63;;
22425;SDS011;11380;50.822;15.790;2023-04-06T09:48:34;57.03;;;51.40;;
22425;SDS011;11380;50.822;15.790;2023-04-06T09:53:43;57.67;;;51.83;;
22425;SDS011;11380;50.822;15.790;2023-04-06T09:58:56;56.87;;;51.47;;
22425;SDS011;11380;50.822;15.790;2023-04-06T10:04:21;57.70;;;51.97;;
22425;SDS011;11380;50.822;15.790;2023-04-06T10:09:36;56.77;;;51.27;;
22425;SDS011;11380;50.822;15.790;2023-04-06T10:14:45;68.63;;;61.23;;
22425;SDS011;11380;50.822;15.790;2023-04-06T10:19:58;52.23;;;47.37;;
22425;SDS011;11380;50.822;15.790;2023-04-06T10:25:08;57.33;;;51.73;;
22425;SDS011;11380;50.822;15.790;2023-04-06T10:30:15;58.27;;;52.50;;
22425;SDS011;11380;50.822;15.790;2023-04-06T10:35:22;56.60;;;51.10;;
22425;SDS011;11380;50.822;15.790;2023-04-06T10:40:31;60.86;;;54.72;;
22425;SDS011;11380;50.822;15.790;2023-04-06T10:45:43;58.60;;;52.83;;
22425;SDS011;11380;50.822;15.790;2023-04-06T10:50:52;60.10;;;54.07;;
22425;SDS011;11380;50.822;15.790;2023-04-06T10:55:59;57.87;;;51.97;;
22425;SDS011;11380;50.822;15.790;2023-04-06T11:01:08;56.07;;;50.50;;
22425;SDS011;11380;50.822;15.790;2023-04-06T11:06:18;57.53;;;51.83;;
22425;SDS011;11380;50.822;15.790;2023-04-06T11:11:26;57.47;;;51.97;;
22425;SDS011;11380;50.822;15.790;2023-04-06T11:16:33;59.40;;;53.47;;
22425;SDS011;11380;50.822;15.790;2023-04-06T11:21:41;58.75;;;52.75;;
22425;SDS011;11380;50.822;15.790;2023-04-06T11:26:56;59.10;;;53.07;;
22425;SDS011;11380;50.822;15.790;2023-04-06T11:32:09;58.53;;;52.53;;
22425;SDS011;11380;50.822;15.790;2023-04-06T11:37:16;58.80;;;53.03;;
22425;SDS011;11380;50.822;15.790;2023-04-06T11:42:24;54.97;;;49.60;;
22425;SDS011;11380;50.822;15.790;2023-04-06T11:47:34;56.97;;;51.10;;
22425;SDS011;11380;50.822;15.790;2023-04-06T11:52:43;58.38;;;52.55;;
22425;SDS011;11380;50.822;15.790;2023-04-06T11:57:53;57.85;;;52.08;;
22425;SDS011;11380;50.822;15.790;2023-04-06T12:03:01;59.00;;;53.20;;
22425;SDS011;11380;50.822;15.790;2023-04-06T12:08:09;58.40;;;52.50;;
22425;SDS011;11380;50.822;15.790;2023-04-06T12:13:17;51.93;;;47.13;;
22425;SDS011;11380;50.822;15.790;2023-04-06T12:18:25;56.40;;;50.90;;
22425;SDS011;11380;50.822;15.790;2023-04-06T12:23:33;53.65;;;48.50;;
22425;SDS011;11380;50.822;15.790;2023-04-06T12:28:40;56.63;;;51.08;;
22425;SDS011;11380;50.822;15.790;2023-04-06T12:33:49;57.93;;;52.10;;
22425;SDS011;11380;50.822;15.790;2023-04-06T12:38:58;59.43;;;53.43;;
22425;SDS011;11380;50.822;15.790;2023-04-06T12:44:06;59.66;;;53.50;;
22425;SDS011;11380;50.822;15.790;2023-04-06T12:49:14;52.57;;;47.57;;
22425;SDS011;11380;50.822;15.790;2023-04-06T12:54:23;56.63;;;50.93;;
22425;SDS011;11380;50.822;15.790;2023-04-06T12:59:31;53.30;;;48.20;;
22425;SDS011;11380;50.822;15.790;2023-04-06T13:04:39;53.13;;;48.00;;
22425;SDS011;11380;50.822;15.790;2023-04-06T13:09:47;57.88;;;52.30;;
22425;SDS011;11380;50.822;15.790;2023-04-06T13:14:54;57.97;;;52.30;;
22425;SDS011;11380;50.822;15.790;2023-04-06T13:20:02;58.47;;;52.63;;
22425;SDS011;11380;50.822;15.790;2023-04-06T13:25:11;58.20;;;52.33;;
22425;SDS011;11380;50.822;15.790;2023-04-06T13:30:18;57.53;;;51.57;;
22425;SDS011;11380;50.822;15.790;2023-04-06T13:35:25;60.63;;;54.37;;
22425;SDS011;11380;50.822;15.790;2023-04-06T13:40:34;55.00;;;49.57;;
22425;SDS011;11380;50.822;15.790;2023-04-06T13:45:43;59.23;;;53.33;;
22425;SDS011;11380;50.822;15.790;2023-04-06T13:50:55;58.53;;;52.63;;
22425;SDS011;11380;50.822;15.790;2023-04-06T13:56:02;54.17;;;49.03;;
22425;SDS011;11380;50.822;15.790;2023-04-06T14:01:11;54.37;;;49.00;;
22425;SDS011;11380;50.822;15.790;2023-04-06T14:06:18;58.77;;;53.17;;
22425;SDS011;11380;50.822;15.790;2023-04-06T14:11:28;62.80;;;56.07;;
22425;SDS011;11380;50.822;15.790;2023-04-06T14:16:35;55.50;;;50.24;;
22425;SDS011;11380;50.822;15.790;2023-04-06T14:21:42;98.97;;;67.83;;
22425;SDS011;11380;50.822;15.790;2023-04-06T14:26:50;78.13;;;63.50;;
22425;SDS011;11380;50.822;15.790;2023-04-06T14:31:57;52.20;;;47.40;;
22425;SDS011;11380;50.822;15.790;2023-04-06T14:37:07;73.53;;;61.87;;
22425;SDS011;11380;50.822;15.790;2023-04-06T14:42:14;72.20;;;63.13;;
22425;SDS011;11380;50.822;15.790;2023-04-06T14:47:21;59.53;;;53.73;;
22425;SDS011;11380;50.822;15.790;2023-04-06T14:52:29;61.47;;;55.13;;
22425;SDS011;11380;50.822;15.790;2023-04-06T14:57:36;65.53;;;56.83;;
22425;SDS011;11380;50.822;15.790;2023-04-06T15:02:45;62.53;;;55.90;;
22425;SDS011;11380;50.822;15.790;2023-04-06T15:07:53;62.03;;;55.83;;
22425;SDS011;11380;50.822;15.790;2023-04-06T15:13:01;66.13;;;58.93;;
22425;SDS011;11380;50.822;15.790;2023-04-06T15:18:09;52.73;;;47.80;;
22425;SDS011;11380;50.822;15.790;2023-04-06T15:23:17;57.13;;;51.63;;
22425;SDS011;11380;50.822;15.790;2023-04-06T15:28:25;61.53;;;53.03;;
22425;SDS011;11380;50.822;15.790;2023-04-06T15:33:33;57.40;;;51.90;;
22425;SDS011;11380;50.822;15.790;2023-04-06T15:38:41;69.27;;;61.45;;
22425;SDS011;11380;50.822;15.790;2023-04-06T15:43:48;83.07;;;68.42;;
22425;SDS011;11380;50.822;15.790;2023-04-06T15:48:57;80.17;;;65.47;;
22425;SDS011;11380;50.822;15.790;2023-04-06T15:54:05;62.07;;;55.77;;
22425;SDS011;11380;50.822;15.790;2023-04-06T15:59:14;58.93;;;53.07;;
22425;SDS011;11380;50.822;15.790;2023-04-06T16:04:22;63.07;;;56.27;;
22425;SDS011;11380;50.822;15.790;2023-04-06T16:09:31;58.63;;;52.67;;
22425;SDS011;11380;50.822;15.790;2023-04-06T16:14:39;61.80;;;55.25;;
22425;SDS011;11380;50.822;15.790;2023-04-06T16:19:46;60.48;;;54.38;;
22425;SDS011;11380;50.822;15.790;2023-04-06T16:24:54;58.23;;;52.27;;
22425;SDS011;11380;50.822;15.790;2023-04-06T16:30:02;53.57;;;48.63;;
22425;SDS011;11380;50.822;15.790;2023-04-06T16:35:12;53.57;;;48.67;;
22425;SDS011;11380;50.822;15.790;2023-04-06T16:40:20;60.13;;;53.93;;
22425;SDS011;11380;50.822;15.790;2023-04-06T16:45:29;54.87;;;49.63;;
22425;SDS011;11380;50.822;15.790;2023-04-06T16:50:36;54.73;;;49.63;;
22425;SDS011;11380;50.822;15.790;2023-04-06T16:55:45;55.20;;;49.75;;
22425;SDS011;11380;50.822;15.790;2023-04-06T17:00:52;56.87;;;51.37;;
22425;SDS011;11380;50.822;15.790;2023-04-06T17:06:00;56.40;;;50.83;;
22425;SDS011;11380;50.822;15.790;2023-04-06T17:11:10;56.03;;;50.73;;
22425;SDS011;11380;50.822;15.790;2023-04-06T17:16:24;55.23;;;50.07;;
22425;SDS011;11380;50.822;15.790;2023-04-06T17:21:32;56.13;;;50.73;;
22425;SDS011;11380;50.822;15.790;2023-04-06T17:26:40;62.73;;;56.30;;
22425;SDS011;11380;50.822;15.790;2023-04-06T17:31:48;59.58;;;53.68;;
22425;SDS011;11380;50.822;15.790;2023-04-06T17:36:56;56.93;;;51.43;;
22425;SDS011;11380;50.822;15.790;2023-04-06T17:42:03;58.00;;;52.50;;
22425;SDS011;11380;50.822;15.790;2023-04-06T17:47:11;56.07;;;50.60;;
22425;SDS011;11380;50.822;15.790;2023-04-06T17:52:19;57.33;;;51.73;;
22425;SDS011;11380;50.822;15.790;2023-04-06T17:57:27;57.87;;;52.23;;
22425;SDS011;11380;50.822;15.790;2023-04-06T18:02:35;57.80;;;52.17;;
22425;SDS011;11380;50.822;15.790;2023-04-06T18:07:45;56.50;;;51.30;;
22425;SDS011;11380;50.822;15.790;2023-04-06T18:12:53;55.70;;;50.47;;
22425;SDS011;11380;50.822;15.790;2023-04-06T18:18:01;56.43;;;51.03;;
22425;SDS011;11380;50.822;15.790;2023-04-06T18:23:10;55.27;;;49.97;;
22425;SDS011;11380;50.822;15.790;2023-04-06T18:28:19;55.80;;;50.40;;
22425;SDS011;11380;50.822;15.790;2023-04-06T18:33:27;55.40;;;50.10;;
22425;SDS011;11380;50.822;15.790;2023-04-06T18:38:35;58.30;;;52.53;;
22425;SDS011;11380;50.822;15.790;2023-04-06T18:43:49;56.83;;;51.23;;
22425;SDS011;11380;50.822;15.790;2023-04-06T18:48:56;58.33;;;52.43;;
22425;SDS011;11380;50.822;15.790;2023-04-06T18:54:04;58.10;;;52.20;;
22425;SDS011;11380;50.822;15.790;2023-04-06T18:59:15;58.00;;;52.27;;
22425;SDS011;11380;50.822;15.790;2023-04-06T19:04:22;58.17;;;52.47;;
22425;SDS011;11380;50.822;15.790;2023-04-06T19:09:30;59.77;;;53.57;;
22425;SDS011;11380;50.822;15.790;2023-04-06T19:14:38;60.43;;;54.03;;
22425;SDS011;11380;50.822;15.790;2023-04-06T19:19:47;65.12;;;56.70;;
22425;SDS011;11380;50.822;15.790;2023-04-06T19:24:55;69.70;;;58.47;;
22425;SDS011;11380;50.822;15.790;2023-04-06T19:30:05;73.03;;;61.47;;
22425;SDS011;11380;50.822;15.790;2023-04-06T19:35:16;80.60;;;63.30;;
22425;SDS011;11380;50.822;15.790;2023-04-06T19:40:24;64.87;;;57.77;;
22425;SDS011;11380;50.822;15.790;2023-04-06T19:45:33;75.40;;;59.00;;
22425;SDS011;11380;50.822;15.790;2023-04-06T19:50:41;79.20;;;59.85;;
22425;SDS011;11380;50.822;15.790;2023-04-06T19:55:49;73.40;;;58.58;;
22425;SDS011;11380;50.822;15.790;2023-04-06T20:00:57;66.87;;;57.70;;
22425;SDS011;11380;50.822;15.790;2023-04-06T20:06:12;70.70;;;57.73;;
22425;SDS011;11380;50.822;15.790;2023-04-06T20:11:23;73.63;;;59.87;;
22425;SDS011;11380;50.822;15.790;2023-04-06T20:16:33;66.50;;;57.03;;
22425;SDS011;11380;50.822;15.790;2023-04-06T20:21:41;70.70;;;58.30;;
22425;SDS011;11380;50.822;15.790;2023-04-06T20:26:49;62.77;;;56.07;;
22425;SDS011;11380;50.822;15.790;2023-04-06T20:31:57;61.30;;;54.97;;
22425;SDS011;11380;50.822;15.790;2023-04-06T20:37:05;65.47;;;57.87;;
22425;SDS011;11380;50.822;15.790;2023-04-06T20:42:11;70.10;;;57.88;;
22425;SDS011;11380;50.822;15.790;2023-04-06T20:47:21;62.73;;;56.00;;
22425;SDS011;11380;50.822;15.790;2023-04-06T20:52:29;57.97;;;52.47;;
22425;SDS011;11380;50.822;15.790;2023-04-06T20:57:36;64.74;;;55.38;;
22425;SDS011;11380;50.822;15.790;2023-04-06T21:02:47;61.57;;;55.20;;
22425;SDS011;11380;50.822;15.790;2023-04-06T21:07:54;61.57;;;55.03;;
22425;SDS011;11380;50.822;15.790;2023-04-06T21:13:01;59.53;;;53.23;;
22425;SDS011;11380;50.822;15.790;2023-04-06T21:18:09;56.93;;;51.63;;
22425;SDS011;11380;50.822;15.790;2023-04-06T21:23:17;58.73;;;52.97;;
22425;SDS011;11380;50.822;15.790;2023-04-06T21:28:27;64.90;;;57.53;;
22425;SDS011;11380;50.822;15.790;2023-04-06T21:33:34;77.73;;;62.20;;
22425;SDS011;11380;50.822;15.790;2023-04-06T21:38:42;72.85;;;61.20;;
22425;SDS011;11380;50.822;15.790;2023-04-06T21:43:51;82.43;;;66.57;;
22425;SDS011;11380;50.822;15.790;2023-04-06T21:54:04;102.70;;;68.77;;
22425;SDS011;11380;50.822;15.790;2023-04-06T21:59:15;100.03;;;69.23;;
22425;SDS011;11380;50.822;15.790;2023-04-06T22:04:24;100.40;;;72.70;;
22425;SDS011;11380;50.822;15.790;2023-04-06T22:09:33;106.98;;;72.26;;
22425;SDS011;11380;50.822;15.790;2023-04-06T22:14:40;104.97;;;72.27;;
22425;SDS011;11380;50.822;15.790;2023-04-06T22:19:47;102.05;;;72.58;;
22425;SDS011;11380;50.822;15.790;2023-04-06T22:24:55;104.80;;;70.13;;
22425;SDS011;11380;50.822;15.790;2023-04-06T22:30:04;103.40;;;71.23;;
22425;SDS011;11380;50.822;15.790;2023-04-06T22:35:12;98.77;;;69.73;;
22425;SDS011;11380;50.822;15.790;2023-04-06T22:40:21;111.37;;;74.10;;
22425;SDS011;11380;50.822;15.790;2023-04-06T22:45:29;107.10;;;73.63;;
22425;SDS011;11380;50.822;15.790;2023-04-06T22:50:37;113.67;;;74.80;;
22425;SDS011;11380;50.822;15.790;2023-04-06T22:55:45;101.58;;;70.40;;
22425;SDS011;11380;50.822;15.790;2023-04-06T23:00:52;97.20;;;68.90;;
22425;SDS011;11380;50.822;15.790;2023-04-06T23:06:00;87.60;;;67.80;;
22425;SDS011;11380;50.822;15.790;2023-04-06T23:11:07;103.93;;;70.23;;
22425;SDS011;11380;50.822;15.790;2023-04-06T23:16:16;93.23;;;69.33;;
22425;SDS011;11380;50.822;15.790;2023-04-06T23:21:23;100.53;;;73.07;;
22425;SDS011;11380;50.822;15.790;2023-04-06T23:26:31;105.97;;;72.13;;
22425;SDS011;11380;50.822;15.790;2023-04-06T23:31:39;92.70;;;70.62;;
22425;SDS011;11380;50.822;15.790;2023-04-06T23:36:47;97.47;;;68.10;;
22425;SDS011;11380;50.822;15.790;2023-04-06T23:41:55;93.63;;;64.20;;
22425;SDS011;11380;50.822;15.790;2023-04-06T23:47:03;91.43;;;67.93;;
22425;SDS011;11380;50.822;15.790;2023-04-06T23:52:10;74.07;;;62.60;;
22425;SDS011;11380;50.822;15.790;2023-04-06T23:57:18;69.10;;;59.43;;
